Time,TemperatureF,DewpointF,PressureIn,WindDirection,WindDirectionDegrees,WindSpeedMPH,WindSpeedGustMPH,Humidity,HourlyPrecipIn,Conditions,Clouds,dailyrainin,SoftwareType,DateUTC
2015-01-27 00:13:00,33.0,33.0,29.92,NW,321,9.0,11.0,99,0.00,,,0.00,,2015-01-27 06:13:00,
2015-01-27 00:22:00,33.0,33.0,29.92,NW,321,9.0,11.0,99,0.00,,,0.00,,2015-01-27 06:22:00,
2015-01-27 00:32:00,33.0,33.0,29.92,NW,321,9.0,11.0,99,0.00,,,0.00,,2015-01-27 06:32:00,
2015-01-27 00:53:00,33.0,32.0,29.93,NNW,339,8.0,13.0,98,0.00,,,0.00,,2015-01-27 06:53:00,
2015-01-27 01:02:00,33.0,32.0,29.93,NNW,339,8.0,13.0,98,0.00,,,0.00,,2015-01-27 07:02:00,
2015-01-27 01:22:00,32.0,32.0,29.94,NNW,338,10.0,11.0,98,0.00,,,0.00,,2015-01-27 07:22:00,
2015-01-27 01:32:00,32.0,32.0,29.94,NNW,338,10.0,11.0,98,0.00,,,0.00,,2015-01-27 07:32:00,
2015-01-27 01:42:00,32.0,32.0,29.94,NNW,338,10.0,11.0,98,0.00,,,0.00,,2015-01-27 07:42:00,
2015-01-27 01:52:00,32.0,32.0,29.95,NNW,342,10.0,12.0,98,0.00,,,0.00,,2015-01-27 07:52:00,
2015-01-27 02:02:00,32.0,32.0,29.95,NNW,342,10.0,12.0,98,0.00,,,0.00,,2015-01-27 08:02:00,
2015-01-27 02:12:00,32.0,32.0,29.95,NNW,342,10.0,12.0,98,0.00,,,0.00,,2015-01-27 08:12:00,
2015-01-27 02:22:00,29.0,29.0,29.96,North,350,10.0,12.0,98,0.00,,,0.00,,2015-01-27 08:22:00,
2015-01-27 02:33:00,29.0,29.0,29.96,North,350,10.0,12.0,98,0.00,,,0.00,,2015-01-27 08:33:00,
2015-01-27 02:42:00,29.0,29.0,29.96,North,350,10.0,12.0,98,0.00,,,0.00,,2015-01-27 08:42:00,
2015-01-27 02:52:00,29.0,29.0,29.96,North,350,10.0,12.0,98,0.00,,,0.00,,2015-01-27 08:52:00,
2015-01-27 03:22:00,28.0,28.0,29.98,NNW,340,10.0,11.0,98,0.00,,,0.00,,2015-01-27 09:22:00,
2015-01-27 03:33:00,28.0,28.0,29.98,NNW,340,10.0,11.0,98,0.00,,,0.00,,2015-01-27 09:33:00,
2015-01-27 03:44:00,28.0,28.0,29.98,NNW,340,10.0,11.0,98,0.00,,,0.00,,2015-01-27 09:44:00,
2015-01-27 03:54:00,29.0,29.0,29.99,NNW,338,10.0,15.0,98,0.00,,,0.00,,2015-01-27 09:54:00,
2015-01-27 04:03:00,29.0,29.0,29.99,NNW,338,10.0,15.0,98,0.00,,,0.00,,2015-01-27 10:03:00,
2015-01-27 04:13:00,29.0,29.0,29.99,NNW,338,10.0,15.0,98,0.00,,,0.00,,2015-01-27 10:13:00,
2015-01-27 04:44:00,29.0,29.0,30.01,NNW,329,10.0,13.0,98,0.00,,,0.00,,2015-01-27 10:44:00,
2015-01-27 04:54:00,30.0,29.0,30.02,North,355,10.0,16.0,98,0.00,,,0.00,,2015-01-27 10:54:00,
2015-01-27 05:03:00,30.0,29.0,30.02,North,355,10.0,16.0,98,0.00,,,0.00,,2015-01-27 11:03:00,
2015-01-27 05:13:00,30.0,29.0,30.02,North,355,10.0,16.0,98,0.00,,,0.00,,2015-01-27 11:13:00,
2015-01-27 05:23:00,30.0,29.0,30.03,NNW,336,10.0,13.0,98,0.00,,,0.00,,2015-01-27 11:23:00,
2015-01-27 05:33:00,30.0,29.0,30.03,NNW,336,10.0,13.0,98,0.00,,,0.00,,2015-01-27 11:33:00,
2015-01-27 05:42:00,30.0,29.0,30.04,North,355,12.0,16.0,98,0.00,,,0.00,,2015-01-27 11:42:00,
2015-01-27 05:44:00,30.0,29.0,30.03,NNW,336,10.0,13.0,98,0.00,,,0.00,,2015-01-27 11:44:00,
2015-01-27 05:53:00,30.0,29.0,30.03,NNW,336,10.0,13.0,98,0.00,,,0.00,,2015-01-27 11:53:00,
2015-01-27 06:13:00,30.0,29.0,30.04,North,355,12.0,16.0,98,0.00,,,0.00,,2015-01-27 12:13:00,
2015-01-27 06:22:00,30.0,29.0,30.04,North,355,12.0,16.0,98,0.00,,,0.00,,2015-01-27 12:22:00,
2015-01-27 06:32:00,30.0,29.0,30.04,North,355,12.0,16.0,98,0.00,,,0.00,,2015-01-27 12:32:00,
2015-01-27 06:53:00,29.0,29.0,30.07,North,355,14.0,17.0,98,0.00,,,0.00,,2015-01-27 12:53:00,